Klodzko, Poland
Current Conditions -  °F | °C
As of 11:00 AM on Saturday 22 Nov 2014 (Local Time) from EPWR Reporting Station
Haze Haze  
Wind Chill: 37°   Ceiling: 900
Heat Index: 41°   Visibility: 2.5mi
Dew Point: 37°   Wind: 6mph
Humidity: 87%   Direction: 140°SE
Pressure: 30.33"   Gusts: NA
Location:  50.44°N, 16.66°E
Report Text: EPWR 220900Z 14005KT 4000 BR SCT006 BKN009 05/03 Q1027
Loading
Personal Weather Stations






























Interactive Weather Map New forecast layout! Learn more

10-Day Weather Forecast

Advertisements
Track Severe Weather on mobile